Megacore Philomena — V7VA4 — position and weather

sailwx.info

Track history (hours):
 
Tides and Currents Weather Stations Pressure Air Temp Water Temp Dewpoint Dewpoint Depression Visibility Wind Speed Wind Dir Waves Ship Positions

Megacore Philomena

Last reported at 2017-Aug-20 23:12 UTC. Time now 2017-Sep-19 13:42 UTC.
Position N 25°19' W 079°36'.
Warning: this ship's position is 29 days out of date.

Length 228 m; draft 10.2 m.

Type: Ship. MMSI: 538004071.

Date/timePositionNaut miles runAvg speedWind from/ knotsBaromVisibWave heightAir tempDewpointWater temp
2017-Aug-20 23:12N 25°19' W 079°36'311.2
2017-Aug-20 22:58N 25°21' W 079°36'511.1
2017-Aug-20 22:30N 25°26' W 079°34'511.0
2017-Aug-20 22:00N 25°32' W 079°34'710.7
2017-Aug-20 21:20N 25°39' W 079°32'1110.5
2017-Aug-20 20:18N 25°49' W 079°30'310.5
2017-Aug-20 20:00N 25°53' W 079°30'510.4
2017-Aug-20 19:30N 25°58' W 079°29'510.3
2017-Aug-20 19:00N 26°03' W 079°28'510.8
2017-Aug-20 18:30N 26°06' W 079°24'612.3
2017-Aug-20 17:59N 26°10' W 079°18'  
2017-Aug-18 02:06N 26°30' W 078°47'1 3.5
2017-Aug-18 01:54N 26°31' W 078°48'1 0.6
2017-Aug-18 00:59N 26°30' W 078°49'2 3.4
2017-Aug-18 00:30N 26°29' W 078°49'3 6.1
2017-Aug-18 00:01N 26°26' W 078°51'1 0.9
2017-Aug-17 23:20N 26°26' W 078°50'5 0.1
2017-Aug-16 02:25N 26°26' W 078°56'0 0.9
2017-Aug-16 02:00N 26°26' W 078°56'1 0.7
2017-Aug-16 00:15N 26°26' W 078°54'0 0.6
2017-Aug-15 23:58N 26°26' W 078°54'31 3.1
2017-Aug-15 14:04N 26°08' W 079°22'114.3
2017-Aug-15 14:00N 26°07' W 079°23'713.7
2017-Aug-15 13:30N 26°02' W 079°28'815.4
2017-Aug-15 13:00N 25°55' W 079°29'814.9
2017-Aug-15 12:30N 25°47' W 079°30'815.3
2017-Aug-15 12:00N 25°40' W 079°32'815.3
2017-Aug-15 11:30N 25°32' W 079°33'815.2
2017-Aug-15 11:00N 25°25' W 079°35'  
Track history (hours):
 
Tides and Currents Weather Stations Pressure Air Temp Water Temp Dewpoint Dewpoint Depression Visibility Wind Speed Wind Dir Waves Ship Positions

Megacore Philomena

Last reported at 2017-Aug-20 23:12 UTC. Time now 2017-Sep-19 13:42 UTC.
Position N 25°19' W 079°36'.
Warning: this ship's position is 29 days out of date.

Length 228 m; draft 10.2 m.

Type: Ship. MMSI: 538004071.

Date/timePositionNaut miles runAvg speedWind from/ knotsBaromVisibWave heightAir tempDewpointWater temp
2017-Aug-20 23:12N 25°19' W 079°36'311.2
2017-Aug-20 22:58N 25°21' W 079°36'511.1
2017-Aug-20 22:30N 25°26' W 079°34'511.0
2017-Aug-20 22:00N 25°32' W 079°34'710.7
2017-Aug-20 21:20N 25°39' W 079°32'1110.5
2017-Aug-20 20:18N 25°49' W 079°30'310.5
2017-Aug-20 20:00N 25°53' W 079°30'510.4
2017-Aug-20 19:30N 25°58' W 079°29'510.3
2017-Aug-20 19:00N 26°03' W 079°28'510.8
2017-Aug-20 18:30N 26°06' W 079°24'612.3
2017-Aug-20 17:59N 26°10' W 079°18'  
2017-Aug-18 02:06N 26°30' W 078°47'1 3.5
2017-Aug-18 01:54N 26°31' W 078°48'1 0.6
2017-Aug-18 00:59N 26°30' W 078°49'2 3.4
2017-Aug-18 00:30N 26°29' W 078°49'3 6.1
2017-Aug-18 00:01N 26°26' W 078°51'1 0.9
2017-Aug-17 23:20N 26°26' W 078°50'5 0.1
2017-Aug-16 02:25N 26°26' W 078°56'0 0.9
2017-Aug-16 02:00N 26°26' W 078°56'1 0.7
2017-Aug-16 00:15N 26°26' W 078°54'0 0.6
2017-Aug-15 23:58N 26°26' W 078°54'31 3.1
2017-Aug-15 14:04N 26°08' W 079°22'114.3
2017-Aug-15 14:00N 26°07' W 079°23'713.7
2017-Aug-15 13:30N 26°02' W 079°28'815.4
2017-Aug-15 13:00N 25°55' W 079°29'814.9
2017-Aug-15 12:30N 25°47' W 079°30'815.3
2017-Aug-15 12:00N 25°40' W 079°32'815.3
2017-Aug-15 11:30N 25°32' W 079°33'815.2
2017-Aug-15 11:00N 25°25' W 079°35'  

Dump ship's entire track history